• Join FlightAware (Why Join?)
  • Login
  • US Flag 
03:07PM EDT


 

Airport Tracker/Info


-or-


 

Live Flight TrackerFlight Track Log ✈ BJS542 ✈ 11-Aug-2013 ✈ KTEB - KEEN

Flight Track Log - Related Links

Times and Time Zones

All times are in EDT time to prevent confusion due to time zone crossing. See the BJS542 flight status page for this flight to view local times or setup timezone preferences in your user account.

Time Position Orientation Groundspeed Altitude Reporting Facility
EDT Latitude Longitude Course Direction KTS MPH feet Rate Location/Type
08:30PM 40.8167 -74.2167 270° West 236 272 3,600  Level New York TRACON
08:31PM 40.8333 -74.2833 288° West 265 305 5,400 1,200 Climbing New York TRACON
08:32PM 40.9167 -74.2833 360° North 283 326 6,000 240 Climbing New York TRACON
08:33PM 40.9833 -74.2333 30° Northeast 290 334 6,000  Level New York TRACON
08:34PM 41.0667 -74.2000 17° North 289 333 6,000 600 Level New York TRACON
08:35PM 41.1333 -74.1500 29° Northeast 283 326 7,300 2,400 Climbing New York TRACON
08:36PM 41.1833 -74.0500 56° Northeast 336 387 10,800 1,800 Climbing New York TRACON
08:37PM 41.2000 -73.9167 81° East 390 449 11,000 1,200 Climbing New York TRACON
08:40PM 41.2900 -73.5783 70° East 363 418 15,300 1,380 Climbing Boston Center
08:41PM 41.3578 -73.4772 48° Northeast 357 411 16,300 780 Climbing Boston Center
08:42PM 41.4336 -73.3786 44° Northeast 365 420 17,000 300 Climbing Boston Center
08:43PM 41.4989 -73.2936 44° Northeast 365 420 17,000  Level Boston Center
08:44PM 41.5956 -73.2006 36° Northeast 372 428 17,000  Level Boston Center
08:45PM 41.6936 -73.1739 11° North 386 444 17,000  Level Boston Center
08:46PM 41.8106 -73.1475 10° North 386 444 17,000 -360 Level Boston Center
08:46PM 41.8711 -73.1258 15° North 400 460 16,500 -1,380 Descending Boston Center
08:48PM 42.0050 -73.0100 33° Northeast 390 449 14,300 -1,560 Descending Boston Center
08:48PM 42.0050 -73.0100 33° Northeast 407 468 14,300 -1,500 Level Boston Center
08:49PM 42.0908 -72.9353 33° Northeast 409 471 12,900 -1,560 Descending Boston Center
08:50PM 42.1642 -72.8658 35° Northeast 356 410 11,300 -1,500 Descending Boston Center
08:51PM 42.2353 -72.8017 34° Northeast 319 367 9,900 -1,500 Descending Boston Center
08:52PM 42.3019 -72.7433 33° Northeast 291 335 8,300 -1,560 Descending Boston Center
08:53PM 42.3667 -72.6817 35° Northeast 286 329 6,800 -1,440 Descending Boston Center
08:54PM 42.4336 -72.6258 32° Northeast 286 329 5,500 -960 Descending Boston Center
08:55PM 42.4983 -72.5669 34° Northeast 281 323 5,000 -300 Descending Boston Center
08:56PM 42.5608 -72.5078 35° Northeast 281 323 5,000 -720 Level Boston Center
08:57PM 42.6233 -72.4514 34° Northeast 281 323 3,600 -1,380 Descending Boston Center